Time;durP1;ratioP1;P1;durP2;ratioP2;P2;SDS_P1;SDS_P2;PMS_P1;PMS_P2;Temp;Humidity;BMP_temperature;BMP_pressure;BME280_temperature;BME280_humidity;BME280_pressure;Samples;Min_cycle;Max_cycle;Signal;HPM_P1;HPM_P2
2023/04/30 00:01:42;;;;;;;;;12.00;10.00;;;;;16.88;75.22;100723.09;5074856;28;45604;-84
2023/04/30 00:04:08;;;;;;;;;11.33;10.33;;;;;16.93;75.21;100733.69;5076125;27;45479;-85
2023/04/30 00:06:35;;;;;;;;;12.33;11.33;;;;;16.88;75.56;100727.50;5075767;27;46552;-82
2023/04/30 00:09:00;;;;;;;;;14.33;13.00;;;;;16.84;75.74;100721.31;5075713;27;45492;-78
2023/04/30 00:11:26;;;;;;;;;11.67;11.67;;;;;16.95;75.40;100736.31;5075618;27;45416;-82
2023/04/30 00:13:52;;;;;;;;;14.33;12.67;;;;;16.84;75.50;100718.66;5075949;27;46035;-86
2023/04/30 00:16:18;;;;;;;;;14.00;12.33;;;;;16.86;75.60;100722.19;5075250;28;45759;-82
2023/04/30 00:18:44;;;;;;;;;16.67;15.67;;;;;16.85;75.89;100731.00;5075984;27;45740;-71
2023/04/30 00:21:10;;;;;;;;;11.67;11.00;;;;;16.88;76.01;100733.66;5075800;27;45528;-78
2023/04/30 00:23:35;;;;;;;;;16.33;12.00;;;;;16.76;75.87;100716.81;5075692;27;45515;-80
2023/04/30 00:26:01;;;;;;;;;15.00;13.00;;;;;16.77;76.18;100721.22;5075234;28;45559;-84
2023/04/30 00:28:27;;;;;;;;;16.67;13.67;;;;;16.81;76.06;100730.91;5074006;28;45502;-72
2023/04/30 00:30:52;;;;;;;;;17.33;14.67;;;;;16.66;76.14;100711.47;5075531;27;45373;-73
2023/04/30 00:33:18;;;;;;;;;13.67;13.33;;;;;16.83;76.02;100748.56;5082313;27;45447;-85
2023/04/30 00:35:44;;;;;;;;;16.67;13.00;;;;;16.70;76.53;100730.84;5089642;27;46310;-81
2023/04/30 00:38:09;;;;;;;;;16.00;15.33;;;;;16.76;76.34;100735.28;5075179;28;45322;-72
2023/04/30 00:40:36;;;;;;;;;15.67;11.67;;;;;16.81;76.14;100746.75;5075740;27;45642;-72
2023/04/30 00:43:03;;;;;;;;;14.33;12.67;;;;;16.76;75.87;100741.44;5076800;27;45498;-84
2023/04/30 00:45:30;;;;;;;;;16.67;12.00;;;;;16.75;75.60;100739.69;5077237;28;45392;-80
2023/04/30 00:47:56;;;;;;;;;18.33;16.67;;;;;16.65;75.32;100736.09;5078356;28;45442;-74
2023/04/30 00:50:23;;;;;;;;;19.00;16.00;;;;;16.64;75.57;100736.06;5077351;28;45431;-83
2023/04/30 00:52:49;;;;;;;;;16.00;13.00;;;;;16.69;75.50;100750.16;5077001;28;45509;-84
2023/04/30 00:55:16;;;;;;;;;15.00;14.00;;;;;16.47;75.61;100718.38;5079012;28;45507;-74
2023/04/30 00:57:42;;;;;;;;;14.33;13.33;;;;;16.60;75.33;100739.56;5078817;27;45459;-85
2023/04/30 01:00:10;;;;;;;;;15.00;15.00;;;;;16.59;75.38;100732.50;5078233;27;45444;-85
2023/04/30 01:02:38;;;;;;;;;17.67;14.67;;;;;16.59;75.20;100719.31;5076785;28;45521;-85
2023/04/30 01:05:05;;;;;;;;;18.00;12.67;;;;;16.54;75.17;100715.78;5077546;28;45468;-79
2023/04/30 01:07:32;;;;;;;;;15.00;14.00;;;;;16.66;75.04;100740.47;5089183;27;45377;-86
2023/04/30 01:10:03;;;;;;;;;17.67;16.00;;;;;16.61;74.94;100736.03;5079157;28;45285;-85
2023/04/30 01:12:50;;;;;;;;;16.75;14.00;;;;;16.62;75.23;100737.81;5079323;28;45515;-75
2023/04/30 01:15:28;;;;;;;;;16.33;12.33;;;;;16.67;75.14;100736.06;5080109;28;46223;-72
2023/04/30 01:18:00;;;;;;;;;15.33;14.33;;;;;16.67;74.92;100730.81;5080025;27;45363;-85
2023/04/30 01:20:28;;;;;;;;;19.00;17.00;;;;;16.54;75.67;100723.69;5096061;27;45497;-80
2023/04/30 01:23:08;;;;;;;;;14.00;13.00;;;;;16.45;75.18;100706.91;5079696;27;45410;-81
2023/04/30 01:26:06;;;;;;;;;13.67;11.67;;;;;16.40;76.02;100708.63;5079847;27;45332;-79
2023/04/30 01:28:35;;;;;;;;;10.00;10.00;;;;;16.37;75.57;100697.16;5095716;27;45251;-82
2023/04/30 01:31:00;;;;;;;;;13.67;11.00;;;;;16.36;76.42;100719.13;5079706;27;45337;-81
2023/04/30 01:33:26;;;;;;;;;10.67;7.67;;;;;16.29;76.33;100718.19;5079960;27;45481;-83
2023/04/30 01:36:04;;;;;;;;;9.00;7.33;;;;;16.40;76.87;100729.72;5079915;28;46580;-84
2023/04/30 01:38:55;;;;;;;;;9.33;8.00;;;;;16.38;76.97;100718.28;5079605;27;45290;-84
2023/04/30 01:41:45;;;;;;;;;10.00;7.33;;;;;16.41;76.85;100718.31;5050880;28;45556;-79
2023/04/30 01:44:32;;;;;;;;;10.67;7.33;;;;;16.32;76.67;100691.84;5079859;27;45286;-84
2023/04/30 01:47:08;;;;;;;;;11.67;9.67;;;;;16.41;76.46;100698.94;5079482;27;46065;-80
2023/04/30 01:49:47;;;;;;;;;9.67;9.00;;;;;16.31;76.64;100697.97;5095358;27;45335;-81
2023/04/30 01:52:35;;;;;;;;;8.33;8.00;;;;;16.45;76.65;100713.91;5080279;27;45290;-79
2023/04/30 01:55:11;;;;;;;;;7.00;6.67;;;;;16.38;76.13;100697.19;5079043;27;45238;-78
2023/04/30 01:57:41;;;;;;;;;6.67;6.00;;;;;16.47;76.20;100705.19;5078154;28;46983;-79
2023/04/30 02:00:10;;;;;;;;;8.00;6.00;;;;;16.38;76.66;100681.34;5079434;28;45275;-84
2023/04/30 02:02:36;;;;;;;;;7.00;6.00;;;;;16.37;76.59;100674.31;5079540;27;45418;-81
2023/04/30 02:05:03;;;;;;;;;5.33;5.33;;;;;16.42;76.49;100682.28;5079640;27;45423;-85
2023/04/30 02:07:44;;;;;;;;;6.33;6.33;;;;;16.43;76.75;100697.22;5094785;27;45394;-79
2023/04/30 02:10:13;;;;;;;;;5.00;4.67;;;;;16.48;76.69;100703.41;5079273;27;45434;-75
2023/04/30 02:12:40;;;;;;;;;7.33;7.00;;;;;16.45;76.53;100693.72;5079249;27;45531;-80
2023/04/30 02:15:06;;;;;;;;;8.00;6.00;;;;;16.47;76.75;100702.53;5079610;27;45360;-79
2023/04/30 02:17:32;;;;;;;;;9.00;8.67;;;;;16.47;77.21;100699.91;5079213;27;46249;-80
2023/04/30 02:19:58;;;;;;;;;8.67;8.00;;;;;16.44;76.60;100691.06;5094717;27;45413;-83
2023/04/30 02:22:24;;;;;;;;;10.00;6.00;;;;;16.42;76.71;100675.25;5079012;28;45354;-77
2023/04/30 02:24:50;;;;;;;;;8.67;7.33;;;;;15.89;77.01;100592.19;5079140;27;45543;-77
2023/04/30 02:27:16;;;;;;;;;7.33;7.00;;;;;16.49;76.89;100711.34;5078127;28;45338;-83
2023/04/30 02:29:42;;;;;;;;;11.00;10.67;;;;;16.34;77.01;100686.59;5077535;28;45383;-85
2023/04/30 02:32:08;;;;;;;;;10.00;8.33;;;;;16.36;77.36;100691.00;5078876;27;45227;-83
2023/04/30 02:34:34;;;;;;;;;10.00;9.00;;;;;16.47;77.17;100706.91;5078077;28;45543;-84
2023/04/30 02:37:01;;;;;;;;;9.67;8.33;;;;;16.28;76.61;100668.97;5079082;28;46584;-81
2023/04/30 02:39:28;;;;;;;;;12.00;10.33;;;;;16.36;76.54;100683.09;5078946;27;45446;-81
2023/04/30 02:41:54;;;;;;;;;10.00;9.00;;;;;16.38;77.18;100691.03;5077700;28;45263;-85
2023/04/30 02:44:19;;;;;;;;;7.00;7.00;;;;;16.41;76.55;100699.84;5078161;28;45526;-86
2023/04/30 02:46:45;;;;;;;;;7.67;7.33;;;;;16.45;76.75;100704.28;5078596;27;46181;-85
2023/04/30 02:49:10;;;;;;;;;10.00;9.00;;;;;16.39;77.29;100691.03;5079013;27;45365;-85
2023/04/30 02:51:36;;;;;;;;;13.67;10.00;;;;;16.41;77.18;100684.03;5077661;28;45400;-85
2023/04/30 02:54:03;;;;;;;;;11.67;10.33;;;;;16.38;77.50;100685.75;5079094;27;45515;-85
2023/04/30 02:56:28;;;;;;;;;10.67;9.33;;;;;16.36;77.14;100683.09;5078235;27;46723;-83
2023/04/30 02:58:54;;;;;;;;;13.33;10.00;;;;;16.40;77.02;100687.53;5078053;27;45385;-81
2023/04/30 03:01:20;;;;;;;;;15.67;11.00;;;;;16.19;77.43;100669.75;5079140;28;45374;-85
2023/04/30 03:03:45;;;;;;;;;17.33;14.67;;;;;16.32;77.05;100691.84;5077656;28;45432;-82
2023/04/30 03:06:11;;;;;;;;;18.67;14.33;;;;;16.24;76.73;100681.25;5075681;28;45386;-84
2023/04/30 03:08:36;;;;;;;;;18.00;13.33;;;;;16.41;76.77;100713.03;5076933;28;45353;-84
2023/04/30 03:11:02;;;;;;;;;18.75;17.50;;;;;16.39;76.21;100713.88;5078647;27;45383;-85
2023/04/30 03:13:28;;;;;;;;;16.75;16.00;;;;;16.21;76.57;100698.78;5077213;28;45327;-85
2023/04/30 03:15:58;;;;;;;;;15.67;13.00;;;;;16.08;76.25;100679.34;5078249;27;46164;-83
2023/04/30 03:18:24;;;;;;;;;18.33;14.67;;;;;16.26;76.33;100715.53;5076655;28;45583;-84
2023/04/30 03:20:49;;;;;;;;;13.67;13.33;;;;;16.16;76.04;100700.50;5077394;28;45487;-85
2023/04/30 03:23:15;;;;;;;;;13.67;12.33;;;;;16.18;75.83;100720.72;5078150;27;45341;-73
2023/04/30 03:25:42;;;;;;;;;16.00;13.67;;;;;16.02;76.49;100721.44;5077621;27;45464;-72
2023/04/30 03:28:08;;;;;;;;;16.33;12.00;;;;;16.03;76.94;100720.56;5077913;27;45403;-75
2023/04/30 03:30:33;;;;;;;;;13.67;12.67;;;;;15.95;76.49;100709.94;5079295;28;45423;-73
2023/04/30 03:32:59;;;;;;;;;15.00;12.67;;;;;15.98;76.23;100725.78;5081931;27;45278;-75
2023/04/30 03:35:26;;;;;;;;;14.00;13.67;;;;;15.93;76.38;100726.59;5081043;27;45706;-84
2023/04/30 03:37:52;;;;;;;;;15.33;13.67;;;;;15.80;76.18;100715.06;5082087;27;45222;-85
2023/04/30 03:40:17;;;;;;;;;14.00;13.33;;;;;15.86;76.40;100712.50;5078337;27;45168;-84
2023/04/30 03:42:44;;;;;;;;;19.00;14.67;;;;;15.94;75.75;100723.13;5078596;27;45375;-86
2023/04/30 03:45:10;;;;;;;;;14.00;12.00;;;;;15.96;75.86;100727.53;5077939;27;47946;-85
2023/04/30 03:47:36;;;;;;;;;13.33;10.00;;;;;15.87;76.16;100712.47;5076763;28;45417;-85
2023/04/30 03:50:04;;;;;;;;;17.75;13.00;;;;;15.90;76.24;100714.28;5078777;28;45494;-85
2023/04/30 03:52:32;;;;;;;;;13.00;10.33;;;;;15.90;76.17;100709.91;5078141;27;45342;-85
2023/04/30 03:54:58;;;;;;;;;12.00;11.00;;;;;15.97;75.98;100702.94;5078553;27;46294;-85
2023/04/30 03:57:24;;;;;;;;;12.00;9.67;;;;;15.97;75.44;100716.09;5078135;27;45321;-86
2023/04/30 03:59:50;;;;;;;;;13.33;10.33;;;;;15.85;76.14;100715.97;5078063;27;45419;-85
2023/04/30 04:02:20;;;;;;;;;12.33;11.00;;;;;15.87;76.05;100712.47;5077971;27;45511;-82
2023/04/30 04:04:50;;;;;;;;;10.67;10.67;;;;;15.96;76.34;100716.97;5077757;27;46222;-83
2023/04/30 04:07:16;;;;;;;;;8.67;8.00;;;;;15.94;75.72;100707.31;5076449;28;45473;-83
2023/04/30 04:09:41;;;;;;;;;8.00;8.00;;;;;15.92;75.89;100723.09;5077943;27;45441;-83
2023/04/30 04:12:07;;;;;;;;;10.67;8.33;;;;;15.90;75.63;100712.53;5077873;27;45315;-85
2023/04/30 04:14:35;;;;;;;;;11.33;9.00;;;;;15.92;76.19;100709.91;5077381;27;47363;-75
2023/04/30 04:17:01;;;;;;;;;11.00;10.00;;;;;15.94;76.14;100724.00;5094527;27;45377;-83
2023/04/30 04:19:27;;;;;;;;;7.33;7.33;;;;;15.83;76.14;100708.03;5096474;27;45391;-75
2023/04/30 04:21:53;;;;;;;;;8.33;8.00;;;;;15.95;76.47;100728.38;5081528;27;45405;-84
2023/04/30 04:24:19;;;;;;;;;9.33;8.67;;;;;15.81;76.21;100701.00;5080762;27;45484;-74
2023/04/30 04:26:44;;;;;;;;;9.00;8.00;;;;;15.81;76.46;100701.88;5081068;27;45422;-78
2023/04/30 04:29:11;;;;;;;;;9.00;7.33;;;;;15.89;76.47;100709.88;5081195;27;45347;-84
2023/04/30 04:31:37;;;;;;;;;6.00;6.00;;;;;15.99;76.92;100731.94;5081353;27;45389;-84
2023/04/30 04:34:04;;;;;;;;;6.00;4.33;;;;;16.02;76.49;100738.13;5080548;27;45538;-82
2023/04/30 04:36:32;;;;;;;;;6.67;6.67;;;;;15.98;76.20;100738.97;5079476;27;45514;-84
2023/04/30 04:39:00;;;;;;;;;5.33;5.00;;;;;15.80;76.60;100704.53;5079347;27;45527;-80
2023/04/30 04:41:31;;;;;;;;;4.00;3.67;;;;;15.86;76.60;100729.16;5081204;28;45367;-79
2023/04/30 04:43:58;;;;;;;;;6.00;6.00;;;;;15.95;76.43;100746.81;5081244;28;46275;-80
2023/04/30 04:46:24;;;;;;;;;4.33;4.33;;;;;15.76;75.71;100716.75;5080736;27;45452;-85
2023/04/30 04:48:51;;;;;;;;;5.67;5.00;;;;;15.87;75.93;100741.47;5081035;27;45376;-81
2023/04/30 04:51:17;;;;;;;;;6.33;5.00;;;;;15.64;75.45;100712.19;5097045;27;45441;-85
2023/04/30 04:53:43;;;;;;;;;4.33;4.00;;;;;15.81;75.35;100735.25;5080646;28;46125;-85
2023/04/30 04:56:10;;;;;;;;;4.00;4.00;;;;;15.85;75.19;100753.72;5080501;27;45408;-84
2023/04/30 04:58:36;;;;;;;;;6.00;4.00;;;;;15.89;75.14;100757.28;5079491;28;45260;-82
2023/04/30 05:01:04;;;;;;;;;6.00;4.00;;;;;15.88;75.30;100766.06;5080598;27;45454;-72
2023/04/30 05:03:31;;;;;;;;;3.67;3.00;;;;;15.77;74.82;100743.97;5079933;27;45646;-71
2023/04/30 05:05:57;;;;;;;;;4.00;3.00;;;;;15.67;74.54;100724.50;5096220;27;45344;-84
2023/04/30 05:08:23;;;;;;;;;3.00;3.00;;;;;15.83;74.52;100751.94;5080323;27;45310;-79
2023/04/30 05:10:48;;;;;;;;;5.00;2.33;;;;;15.81;74.42;100764.22;5096037;27;45495;-85
2023/04/30 05:13:14;;;;;;;;;2.00;2.00;;;;;15.62;74.52;100734.13;5080144;27;45791;-85
2023/04/30 05:15:39;;;;;;;;;2.67;2.00;;;;;15.71;74.50;100750.91;5078956;28;45422;-81
2023/04/30 05:18:05;;;;;;;;;2.00;2.00;;;;;15.76;74.29;100755.41;5078938;28;45347;-74
2023/04/30 05:20:31;;;;;;;;;3.00;2.67;;;;;15.82;73.18;100758.09;5080627;27;45318;-71
2023/04/30 05:22:56;;;;;;;;;1.67;1.00;;;;;15.74;73.51;100747.47;5080586;27;45663;-71
2023/04/30 05:25:22;;;;;;;;;2.67;2.67;;;;;15.67;73.65;100735.06;5080141;28;45386;-72
2023/04/30 05:27:48;;;;;;;;;2.67;2.00;;;;;15.81;73.34;100767.72;5078262;28;45365;-72
2023/04/30 05:30:14;;;;;;;;;3.00;2.33;;;;;15.68;73.81;100757.91;5079136;27;45270;-82
2023/04/30 05:32:41;;;;;;;;;3.67;3.00;;;;;15.49;73.75;100735.69;5079679;27;46264;-85
2023/04/30 05:35:07;;;;;;;;;2.33;2.00;;;;;15.65;73.43;100752.59;5095996;27;45444;-85
2023/04/30 05:37:33;;;;;;;;;2.67;2.00;;;;;15.41;72.79;100724.19;5080417;28;45307;-85
2023/04/30 05:40:01;;;;;;;;;2.00;2.00;;;;;15.52;73.89;100744.53;5080602;27;45387;-85
2023/04/30 05:42:26;;;;;;;;;3.00;3.00;;;;;15.64;73.03;100766.63;5078355;28;47971;-80
2023/04/30 05:44:52;;;;;;;;;4.33;4.33;;;;;15.52;74.03;100744.53;5079448;27;45405;-85
2023/04/30 05:47:18;;;;;;;;;5.33;5.33;;;;;15.67;74.45;100767.53;5079882;27;45388;-85
2023/04/30 05:49:44;;;;;;;;;4.67;4.33;;;;;15.56;74.65;100761.25;5079782;28;45441;-85
2023/04/30 05:52:10;;;;;;;;;3.00;3.00;;;;;15.57;74.25;100763.00;5079848;27;45576;-86
2023/04/30 05:54:37;;;;;;;;;4.67;4.33;;;;;15.68;74.07;100771.06;5079737;27;45393;-85
2023/04/30 05:57:03;;;;;;;;;6.00;5.00;;;;;15.58;74.06;100751.63;5077433;27;45470;-80
2023/04/30 05:59:29;;;;;;;;;3.00;3.00;;;;;15.65;73.47;100761.34;5079401;27;45252;-86
2023/04/30 06:01:55;;;;;;;;;3.00;3.00;;;;;15.79;72.97;100784.41;5080893;27;45791;-71
2023/04/30 06:04:21;;;;;;;;;4.00;4.00;;;;;15.61;73.39;100762.19;5089216;27;45465;-83
2023/04/30 06:06:47;;;;;;;;;3.00;3.00;;;;;15.68;74.05;100771.94;5086297;27;45994;-77
2023/04/30 06:09:12;;;;;;;;;4.00;3.00;;;;;15.81;74.04;100780.91;5089259;27;45498;-84
2023/04/30 06:11:38;;;;;;;;;4.00;3.00;;;;;15.81;73.52;100775.63;5088915;27;45676;-78
2023/04/30 06:14:04;;;;;;;;;3.00;3.00;;;;;15.79;72.90;100768.59;5088847;27;45349;-81
2023/04/30 06:16:30;;;;;;;;;2.00;1.67;;;;;15.90;73.49;100778.41;5087774;27;45502;-84
2023/04/30 06:18:55;;;;;;;;;2.00;2.00;;;;;15.76;73.45;100753.66;5089008;27;45408;-84
2023/04/30 06:21:24;;;;;;;;;9.50;9.00;;;;;15.93;73.41;100764.38;5088697;27;45521;-84
2023/04/30 06:23:51;;;;;;;;;7.00;6.33;;;;;16.00;72.77;100762.69;5084895;27;45423;-83
2023/04/30 06:26:19;;;;;;;;;3.33;3.00;;;;;16.05;72.31;100755.72;5088121;27;45312;-85
2023/04/30 06:28:45;;;;;;;;;6.67;5.67;;;;;16.24;72.72;100781.41;5088066;27;45643;-82
2023/04/30 06:31:11;;;;;;;;;3.33;3.33;;;;;16.26;72.21;100770.88;5087617;27;45586;-72
2023/04/30 06:33:37;;;;;;;;;2.00;2.00;;;;;16.34;72.29;100776.25;5087958;27;45605;-76
2023/04/30 06:36:03;;;;;;;;;3.67;3.00;;;;;16.34;72.46;100770.97;5096886;27;45506;-84
2023/04/30 06:38:30;;;;;;;;;4.00;4.00;;;;;16.23;71.91;100778.75;5080776;27;46142;-85
2023/04/30 06:40:56;;;;;;;;;5.00;4.00;;;;;16.13;72.50;100758.44;5086655;27;46228;-84
2023/04/30 06:43:22;;;;;;;;;3.00;3.00;;;;;16.29;72.79;100778.81;5088594;27;45282;-84
2023/04/30 06:45:48;;;;;;;;;6.00;4.00;;;;;16.38;72.85;100780.66;5084921;27;45322;-85
2023/04/30 06:48:14;;;;;;;;;4.00;3.00;;;;;16.37;72.51;100765.72;5079065;27;45848;-84
2023/04/30 06:50:43;;;;;;;;;3.67;3.67;;;;;16.28;72.65;100756.84;5078710;27;45407;-85
2023/04/30 06:53:13;;;;;;;;;5.00;5.00;;;;;16.57;72.85;100794.91;5078024;28;45481;-83
2023/04/30 06:55:44;;;;;;;;;3.33;3.00;;;;;16.56;72.99;100786.13;5078530;28;45374;-84
2023/04/30 06:58:10;;;;;;;;;6.33;5.00;;;;;16.44;72.97;100764.91;5078762;27;45554;-85
2023/04/30 07:00:35;;;;;;;;;4.67;3.33;;;;;16.62;72.70;100780.03;5076381;28;47532;-74
2023/04/30 07:03:02;;;;;;;;;4.00;3.00;;;;;16.71;72.72;100785.34;5076797;28;45433;-87
2023/04/30 07:05:30;;;;;;;;;4.67;4.67;;;;;16.75;72.42;100771.34;5078018;27;45583;-85
2023/04/30 07:08:00;;;;;;;;;5.33;5.33;;;;;17.00;72.30;100792.66;5074090;28;45930;-85
2023/04/30 07:10:28;;;;;;;;;4.00;4.00;;;;;17.03;71.87;100801.50;5077667;27;45423;-79
2023/04/30 07:12:54;;;;;;;;;4.00;3.33;;;;;17.00;70.37;100798.81;5072857;28;45459;-77
2023/04/30 07:15:20;;;;;;;;;4.67;4.67;;;;;17.03;71.13;100808.50;5058356;28;45373;-86
2023/04/30 07:17:45;;;;;;;;;5.00;5.00;;;;;17.16;71.16;100804.22;5059811;28;45266;-89
2023/04/30 07:20:13;;;;;;;;;4.00;4.00;;;;;17.27;71.60;100803.44;5059865;28;46335;-82
2023/04/30 07:22:43;;;;;;;;;3.00;3.00;;;;;17.30;70.54;100803.44;5056931;28;45386;-87
2023/04/30 07:25:10;;;;;;;;;2.00;2.00;;;;;17.38;70.41;100806.13;5058356;28;45220;-82
2023/04/30 07:27:37;;;;;;;;;4.00;3.33;;;;;17.39;70.84;100807.91;5058653;28;45397;-85
2023/04/30 07:30:03;;;;;;;;;3.00;3.00;;;;;17.52;70.41;100814.13;5064084;28;45454;-82
2023/04/30 07:32:29;;;;;;;;;2.00;2.00;;;;;17.58;69.23;100813.28;5072860;27;45493;-84
2023/04/30 07:34:55;;;;;;;;;1.67;1.00;;;;;17.54;68.93;100807.09;5078252;27;45231;-73
2023/04/30 07:37:21;;;;;;;;;2.00;2.00;;;;;17.72;68.83;100839.78;5085051;27;45507;-91
2023/04/30 07:39:47;;;;;;;;;1.33;1.33;;;;;17.58;69.43;100803.59;5088043;27;46158;-80
2023/04/30 07:42:12;;;;;;;;;1.67;1.67;;;;;17.77;69.36;100832.78;5085765;27;45161;-85
2023/04/30 07:44:38;;;;;;;;;3.00;2.00;;;;;17.62;68.79;100810.66;5085104;27;45298;-81
2023/04/30 07:47:04;;;;;;;;;2.00;2.00;;;;;17.66;68.39;100816.84;5077370;27;45422;-73
2023/04/30 07:49:30;;;;;;;;;3.33;2.33;;;;;17.75;67.83;100821.31;5083773;27;46798;-79
2023/04/30 07:51:55;;;;;;;;;1.67;1.67;;;;;17.83;68.20;100822.22;5075947;28;45337;-81
2023/04/30 07:54:21;;;;;;;;;3.67;2.00;;;;;17.89;68.09;100831.09;5075175;28;45515;-83
2023/04/30 07:56:47;;;;;;;;;2.67;1.67;;;;;17.78;68.38;100800.19;5076874;28;45443;-80
2023/04/30 07:59:13;;;;;;;;;1.67;1.67;;;;;17.95;68.40;100834.66;5077119;27;45370;-80
2023/04/30 08:01:40;;;;;;;;;1.67;1.67;;;;;17.96;68.03;100821.41;5077059;27;45365;-79
2023/04/30 08:04:06;;;;;;;;;0.67;0.67;;;;;17.96;67.69;100833.75;5077605;27;45325;-81
2023/04/30 08:06:32;;;;;;;;;2.67;2.67;;;;;17.94;67.52;100811.72;5075920;28;45618;-82
2023/04/30 08:08:57;;;;;;;;;1.67;1.67;;;;;17.95;68.40;100824.09;5092422;27;48111;-78
2023/04/30 08:11:23;;;;;;;;;2.33;2.33;;;;;18.05;68.45;100845.25;5076942;27;45417;-80
2023/04/30 08:13:48;;;;;;;;;1.67;1.67;;;;;18.06;68.01;100846.13;5077414;27;45494;-79
2023/04/30 08:16:14;;;;;;;;;4.00;2.67;;;;;17.99;68.15;100847.88;5092710;27;46002;-80
2023/04/30 08:18:43;;;;;;;;;1.67;1.67;;;;;17.98;68.11;100846.09;5076424;27;46341;-77
2023/04/30 08:21:10;;;;;;;;;1.67;1.67;;;;;18.04;67.96;100861.09;5076955;27;45318;-81
2023/04/30 08:23:36;;;;;;;;;2.67;2.33;;;;;18.02;68.90;100858.44;5076486;27;45305;-74
2023/04/30 08:26:02;;;;;;;;;1.67;1.67;;;;;17.82;67.92;100836.31;5077050;27;45630;-86
2023/04/30 08:28:27;;;;;;;;;2.67;2.00;;;;;18.02;68.21;100861.09;5070016;27;45494;-76
2023/04/30 08:30:54;;;;;;;;;2.67;2.67;;;;;18.15;68.19;100847.94;5075515;28;45638;-77
2023/04/30 08:33:19;;;;;;;;;4.33;2.33;;;;;17.96;67.31;100773.84;5074764;28;45570;-78
2023/04/30 08:35:45;;;;;;;;;3.67;3.67;;;;;18.56;66.94;100836.59;5075287;27;45606;-73
2023/04/30 08:38:10;;;;;;;;;3.33;3.33;;;;;18.83;66.35;100834.00;5075226;28;45880;-74
2023/04/30 08:40:36;;;;;;;;;2.00;2.00;;;;;19.30;66.13;100841.94;5075031;28;45541;-77
2023/04/30 08:43:05;;;;;;;;;3.00;3.00;;;;;19.40;64.31;100827.81;5070712;28;45625;-77
2023/04/30 08:45:35;;;;;;;;;4.33;3.00;;;;;19.20;64.59;100854.28;5071911;28;46194;-77
2023/04/30 08:48:03;;;;;;;;;6.33;5.67;;;;;19.16;65.54;100853.44;5073728;27;45567;-76
2023/04/30 08:50:30;;;;;;;;;2.33;2.00;;;;;19.14;65.34;100849.91;5074747;28;45521;-76
2023/04/30 08:52:58;;;;;;;;;2.00;2.00;;;;;19.08;65.33;100849.91;5074213;28;45618;-77
2023/04/30 08:55:26;;;;;;;;;2.00;1.67;;;;;18.86;64.92;100825.19;5072870;28;45440;-76
2023/04/30 08:57:51;;;;;;;;;1.00;1.00;;;;;18.91;65.13;100834.00;5074590;27;45542;-74
2023/04/30 09:00:17;;;;;;;;;2.00;1.00;;;;;19.03;64.59;100823.41;5074874;28;45455;-79
2023/04/30 09:02:44;;;;;;;;;2.67;2.00;;;;;19.20;64.35;100825.16;5075466;28;45483;-77
2023/04/30 09:05:12;;;;;;;;;1.67;1.00;;;;;19.55;63.62;100850.72;5078389;28;45616;-77
2023/04/30 09:07:42;;;;;;;;;4.00;4.00;;;;;19.62;64.23;100844.56;5078627;28;45672;-76
2023/04/30 09:10:20;;;;;;;;;3.67;3.33;;;;;19.43;62.88;100847.22;5078702;28;45398;-79
2023/04/30 09:13:02;;;;;;;;;2.67;2.00;;;;;19.21;63.43;100814.56;5074628;28;45231;-77
2023/04/30 09:15:28;;;;;;;;;3.00;3.00;;;;;19.17;63.31;100828.72;5074988;28;45376;-78
2023/04/30 09:18:16;;;;;;;;;3.00;1.00;;;;;19.26;64.09;100856.97;5077378;28;46546;-79
2023/04/30 09:21:02;;;;;;;;;1.00;1.00;;;;;19.63;63.85;100855.13;5077819;28;45570;-77
2023/04/30 09:23:28;;;;;;;;;1.00;1.00;;;;;19.56;63.98;100832.19;5073207;28;45466;-79
2023/04/30 09:25:55;;;;;;;;;1.00;1.00;;;;;19.61;63.87;100856.88;5078642;28;45479;-77
2023/04/30 09:28:23;;;;;;;;;1.33;1.33;;;;;19.60;64.13;100849.84;5075568;28;45567;-77
2023/04/30 09:30:49;;;;;;;;;1.33;1.33;;;;;19.70;62.28;100852.47;5077433;28;45356;-74
2023/04/30 09:33:15;;;;;;;;;5.00;4.00;;;;;19.95;63.07;100840.03;5077800;28;45405;-76
2023/04/30 09:35:41;;;;;;;;;2.00;2.00;;;;;20.27;60.50;100830.19;5078322;28;45522;-73
2023/04/30 09:38:23;;;;;;;;;2.00;1.00;;;;;20.40;60.83;100835.41;5077021;28;45440;-71
2023/04/30 09:40:49;;;;;;;;;1.67;1.67;;;;;20.37;60.75;100838.97;5077798;28;45579;-77
2023/04/30 09:43:15;;;;;;;;;1.00;1.00;;;;;20.34;60.88;100846.94;5077290;28;45456;-77
2023/04/30 09:45:50;;;;;;;;;2.00;1.33;;;;;20.29;60.34;100834.59;5078607;28;45465;-76
2023/04/30 09:48:17;;;;;;;;;1.00;1.00;;;;;20.72;58.75;100835.22;5076026;27;47613;-77
2023/04/30 09:50:46;;;;;;;;;2.00;2.00;;;;;21.16;57.83;100849.03;5077341;27;45442;-72
2023/04/30 09:53:13;;;;;;;;;1.00;1.00;;;;;21.30;55.41;100838.28;5075758;28;45524;-73
2023/04/30 09:55:42;;;;;;;;;3.67;1.33;;;;;21.48;55.29;100816.88;5066540;28;45534;-73
2023/04/30 09:58:09;;;;;;;;;1.00;0.67;;;;;21.96;56.38;100850.91;5076634;28;45433;-78
2023/04/30 10:00:36;;;;;;;;;0.33;0.33;;;;;22.12;53.16;100817.88;5077348;28;45636;-73
2023/04/30 10:03:09;;;;;;;;;1.00;1.00;;;;;22.05;54.30;100846.34;5077549;28;45461;-77
2023/04/30 10:05:46;;;;;;;;;1.67;1.00;;;;;21.87;52.45;100861.66;5075279;28;46072;-78
2023/04/30 10:08:26;;;;;;;;;2.00;2.00;;;;;21.41;54.70;100868.31;5072732;28;45642;-77
2023/04/30 10:11:01;;;;;;;;;1.67;1.00;;;;;21.32;55.15;100866.59;5073120;28;45515;-76
2023/04/30 10:13:31;;;;;;;;;1.00;1.00;;;;;21.32;54.55;100857.75;5074367;27;45429;-77
2023/04/30 10:16:00;;;;;;;;;1.00;1.00;;;;;21.23;54.36;100862.25;5076373;27;45439;-72
2023/04/30 10:18:33;;;;;;;;;1.00;1.00;;;;;21.07;55.71;100873.94;5074840;28;47198;-74
2023/04/30 10:21:09;;;;;;;;;1.33;1.33;;;;;20.78;55.72;100855.53;5075121;28;45550;-73
2023/04/30 10:23:36;;;;;;;;;2.33;2.33;;;;;20.73;56.94;100854.69;5075839;27;45420;-76
2023/04/30 10:26:03;;;;;;;;;1.00;1.00;;;;;20.73;56.92;100857.34;5077144;28;45673;-84
2023/04/30 10:28:31;;;;;;;;;1.00;1.00;;;;;20.69;57.33;100859.16;5061434;28;46269;-82
2023/04/30 10:31:09;;;;;;;;;2.00;1.00;;;;;20.44;56.86;100846.00;5072513;28;45424;-85
2023/04/30 10:34:00;;;;;;;;;1.00;1.00;;;;;20.23;57.85;100841.69;5074873;28;45314;-75
2023/04/30 10:36:33;;;;;;;;;6.00;6.00;;;;;20.12;57.88;100840.00;5077264;28;45618;-73
2023/04/30 10:39:01;;;;;;;;;1.67;1.67;;;;;20.23;57.95;100878.84;5061231;28;46678;-77
2023/04/30 10:41:28;;;;;;;;;1.00;1.00;;;;;20.17;58.14;100872.66;5076376;28;45328;-77
2023/04/30 10:44:01;;;;;;;;;1.33;1.33;;;;;20.36;58.10;100874.34;5076454;28;45440;-76
2023/04/30 10:46:27;;;;;;;;;9.33;9.33;;;;;20.39;58.03;100877.00;5074800;28;45831;-80
2023/04/30 10:48:54;;;;;;;;;1.00;1.00;;;;;20.14;58.63;100884.16;5074835;28;47023;-76
2023/04/30 10:51:20;;;;;;;;;2.67;1.00;;;;;19.98;57.84;100875.38;5075795;27;45468;-77
2023/04/30 10:53:57;;;;;;;;;3.00;2.00;;;;;19.91;58.51;100878.06;5067960;28;45368;-77
2023/04/30 10:56:32;;;;;;;;;3.33;3.33;;;;;20.26;58.82;100901.81;5074676;28;45271;-76
2023/04/30 10:59:02;;;;;;;;;2.00;1.00;;;;;20.05;57.54;100868.28;5074847;28;47985;-78
2023/04/30 11:01:28;;;;;;;;;1.00;1.00;;;;;20.34;57.36;100894.69;5071570;28;45575;-79
2023/04/30 11:04:08;;;;;;;;;0.33;0.33;;;;;20.30;56.47;100850.50;5057190;28;45425;-81
2023/04/30 11:07:22;;;;;;;;;1.00;1.00;;;;;20.37;56.37;100854.91;5054941;28;45407;-78
2023/04/30 11:09:48;;;;;;;;;1.00;1.00;;;;;20.77;55.97;100872.34;5049799;28;46906;-78
2023/04/30 11:12:27;;;;;;;;;0.00;0.00;;;;;20.85;55.86;100858.16;5074574;28;45497;-76
2023/04/30 11:14:59;;;;;;;;;0.67;0.67;;;;;20.97;56.28;100873.13;5078683;27;45814;-84
2023/04/30 11:17:26;;;;;;;;;3.00;3.00;;;;;21.02;55.56;100857.13;5075416;27;45477;-79
2023/04/30 11:19:53;;;;;;;;;1.00;1.00;;;;;20.54;54.40;100755.72;5074684;27;47634;-78
2023/04/30 11:22:22;;;;;;;;;1.00;1.00;;;;;21.23;54.20;100861.41;5075549;28;45390;-74
2023/04/30 11:25:04;;;;;;;;;0.00;0.00;;;;;21.36;54.20;100884.28;5076431;27;45423;-78
2023/04/30 11:27:34;;;;;;;;;0.33;0.33;;;;;21.59;53.29;100878.78;5073271;28;45511;-77